createdAt,value
2017-03-20T00:00:25.336Z,0
2017-03-20T00:01:25.376Z,0
2017-03-20T00:02:25.401Z,0
2017-03-20T00:03:25.436Z,0
2017-03-20T00:04:25.466Z,0
2017-03-20T00:05:25.556Z,0
2017-03-20T00:06:25.526Z,0
2017-03-20T00:07:25.765Z,0
2017-03-20T00:08:25.618Z,0
2017-03-20T00:09:25.632Z,0
2017-03-20T00:10:25.660Z,0
2017-03-20T00:11:25.672Z,0
2017-03-20T00:12:25.712Z,0
2017-03-20T00:13:25.733Z,0
2017-03-20T00:14:25.773Z,0
2017-03-20T00:15:25.788Z,0
2017-03-20T00:16:25.817Z,0
2017-03-20T00:17:25.839Z,0
2017-03-20T00:18:25.917Z,0
2017-03-20T00:19:25.907Z,0
2017-03-20T00:20:25.931Z,0
2017-03-20T00:21:25.966Z,0
2017-03-20T00:22:25.997Z,0
2017-03-20T00:23:26.047Z,0
2017-03-20T00:24:26.053Z,0
2017-03-20T00:25:26.089Z,0
2017-03-20T00:26:26.106Z,0
2017-03-20T00:27:26.140Z,0
2017-03-20T00:28:26.174Z,0
2017-03-20T00:29:26.212Z,0
2017-03-20T00:30:26.227Z,0
2017-03-20T00:31:26.253Z,0
2017-03-20T00:32:26.278Z,0
2017-03-20T00:33:26.323Z,0
2017-03-20T00:34:26.470Z,0
2017-03-20T00:35:26.366Z,0
2017-03-20T00:36:26.403Z,0
2017-03-20T00:37:26.426Z,0
2017-03-20T00:38:26.458Z,0
2017-03-20T00:39:26.507Z,0
2017-03-20T00:40:26.527Z,0
2017-03-20T00:41:26.549Z,0
2017-03-20T00:42:26.574Z,0
2017-03-20T00:43:26.623Z,0
2017-03-20T00:44:26.637Z,0
2017-03-20T00:45:26.770Z,0
2017-03-20T00:46:26.717Z,0
2017-03-20T00:47:26.750Z,0
2017-03-20T00:48:26.770Z,0
2017-03-20T00:49:26.797Z,0
2017-03-20T00:50:26.811Z,0
2017-03-20T00:51:26.837Z,0
2017-03-20T00:52:26.870Z,0
2017-03-20T00:53:26.905Z,0
2017-03-20T00:54:26.945Z,0
2017-03-20T00:55:26.990Z,0
2017-03-20T00:56:27.078Z,0
2017-03-20T00:57:27.028Z,0
2017-03-20T00:58:27.046Z,0
2017-03-20T00:59:27.090Z,0
2017-03-20T01:00:27.114Z,0
2017-03-20T01:01:27.156Z,0
2017-03-20T01:02:27.308Z,0
2017-03-20T01:03:27.197Z,0
2017-03-20T01:04:27.224Z,0
2017-03-20T01:05:27.278Z,0
2017-03-20T01:06:27.292Z,0
2017-03-20T01:07:27.447Z,0
2017-03-20T01:08:27.346Z,0
2017-03-20T01:09:27.377Z,0
2017-03-20T01:10:27.401Z,0
2017-03-20T01:11:27.427Z,0
2017-03-20T01:12:27.473Z,0
2017-03-20T01:13:27.498Z,0
2017-03-20T01:14:27.537Z,0
2017-03-20T01:15:27.547Z,0
2017-03-20T01:16:27.666Z,0
2017-03-20T01:17:27.606Z,0
2017-03-20T01:18:27.637Z,0
2017-03-20T01:19:27.657Z,0
2017-03-20T01:20:27.696Z,0
2017-03-20T01:21:27.787Z,0
2017-03-20T01:22:27.753Z,0
2017-03-20T01:23:27.794Z,0
2017-03-20T01:24:27.811Z,0
2017-03-20T01:25:27.842Z,0
2017-03-20T01:26:27.876Z,0
2017-03-20T01:27:27.909Z,0
2017-03-20T01:28:27.952Z,0
2017-03-20T01:29:27.964Z,0
2017-03-20T01:30:28.006Z,0
2017-03-20T01:31:28.065Z,0
2017-03-20T01:32:28.053Z,0
2017-03-20T01:33:28.071Z,0
2017-03-20T01:34:28.106Z,0
2017-03-20T01:35:30.736Z,0
2017-03-20T01:36:28.170Z,0
2017-03-20T01:37:28.196Z,0
2017-03-20T01:38:28.225Z,0
2017-03-20T01:39:28.245Z,0
2017-03-20T01:40:28.274Z,0
2017-03-20T01:41:28.308Z,0
2017-03-20T01:42:28.400Z,0
2017-03-20T01:43:28.396Z,0
2017-03-20T01:44:28.403Z,0
2017-03-20T01:45:28.438Z,0
2017-03-20T01:46:28.450Z,0
2017-03-20T01:47:28.586Z,0
2017-03-20T01:48:28.525Z,0
2017-03-20T01:49:28.551Z,0
2017-03-20T01:50:28.574Z,0
2017-03-20T01:51:28.590Z,0
2017-03-20T01:52:28.621Z,0
2017-03-20T01:53:28.659Z,0
2017-03-20T01:54:28.690Z,0
2017-03-20T01:55:28.754Z,0
2017-03-20T01:56:28.750Z,0
2017-03-20T01:57:28.770Z,0
2017-03-20T01:58:28.809Z,0
2017-03-20T01:59:28.836Z,0
2017-03-20T02:00:28.857Z,0
2017-03-20T02:01:28.884Z,0
2017-03-20T02:02:28.920Z,0
2017-03-20T02:03:28.960Z,0
2017-03-20T02:04:28.986Z,0
2017-03-20T02:05:29.006Z,0
2017-03-20T02:06:29.035Z,0
2017-03-20T02:07:29.077Z,0
2017-03-20T02:08:29.128Z,0
2017-03-20T02:09:29.150Z,0
2017-03-20T02:10:29.144Z,0
2017-03-20T02:11:29.186Z,0
2017-03-20T02:12:29.213Z,0
2017-03-20T02:13:29.271Z,0
2017-03-20T02:14:29.342Z,0
2017-03-20T02:15:29.298Z,0
2017-03-20T02:16:29.332Z,0
2017-03-20T02:17:29.357Z,0
2017-03-20T02:18:29.392Z,0
2017-03-20T02:19:29.415Z,0
2017-03-20T02:20:29.497Z,0
2017-03-20T02:21:29.466Z,0
2017-03-20T02:22:29.498Z,0
2017-03-20T02:23:29.540Z,0
2017-03-20T02:24:29.564Z,0
2017-03-20T02:25:29.603Z,0
2017-03-20T02:26:29.610Z,0
2017-03-20T02:27:29.668Z,0
2017-03-20T02:28:29.673Z,0
2017-03-20T02:29:29.714Z,0
2017-03-20T02:31:29.400Z,0
2017-03-20T02:31:40.028Z,0
2017-03-20T02:32:40.517Z,0
2017-03-20T02:33:41.007Z,0
2017-03-20T02:34:41.491Z,0
2017-03-20T02:35:41.936Z,0
2017-03-20T02:36:42.404Z,0
2017-03-20T02:37:42.874Z,0
2017-03-20T02:38:43.354Z,0
2017-03-20T02:39:43.843Z,0
2017-03-20T02:40:44.302Z,0
2017-03-20T02:41:44.798Z,0
2017-03-20T02:42:45.296Z,0
2017-03-20T02:43:45.796Z,0
2017-03-20T02:44:46.287Z,0
2017-03-20T02:45:46.767Z,0
2017-03-20T02:46:47.261Z,0
2017-03-20T02:47:47.731Z,0
2017-03-20T02:48:48.234Z,0
2017-03-20T02:49:48.733Z,0
2017-03-20T02:50:49.203Z,0
2017-03-20T02:51:49.674Z,0
2017-03-20T02:52:50.171Z,0
2017-03-20T02:53:50.665Z,0
2017-03-20T02:54:51.157Z,0
2017-03-20T02:55:51.624Z,0
2017-03-20T02:56:52.084Z,0
2017-03-20T02:57:52.545Z,0
2017-03-20T02:58:53.049Z,0
2017-03-20T02:59:53.531Z,0
2017-03-20T03:00:54.013Z,0
2017-03-20T03:01:54.552Z,0
2017-03-20T03:02:54.524Z,0
2017-03-20T03:03:55.021Z,0
2017-03-20T03:04:55.506Z,0
2017-03-20T03:05:56.007Z,0
2017-03-20T03:06:56.482Z,0
2017-03-20T03:07:56.962Z,0
2017-03-20T03:08:57.438Z,0
2017-03-20T03:09:57.961Z,0
2017-03-20T03:10:58.442Z,0
2017-03-20T03:11:58.936Z,0
2017-03-20T03:12:59.431Z,0
2017-03-20T03:13:59.904Z,0
2017-03-20T03:15:00.418Z,0
2017-03-20T03:16:00.852Z,0
2017-03-20T03:17:01.337Z,0
2017-03-20T03:18:01.779Z,0
2017-03-20T03:19:02.268Z,0
2017-03-20T03:20:02.760Z,0
2017-03-20T03:21:03.260Z,0
2017-03-20T03:22:03.713Z,0
2017-03-20T03:23:04.203Z,0
2017-03-20T03:24:04.698Z,0
2017-03-20T03:25:05.176Z,0
2017-03-20T03:26:05.633Z,0
2017-03-20T03:27:06.098Z,0
2017-03-20T03:28:06.594Z,0
2017-03-20T03:29:07.104Z,0
2017-03-20T03:30:07.582Z,0
2017-03-20T03:31:08.068Z,0
2017-03-20T03:32:08.532Z,0
2017-03-20T03:33:09.027Z,0
2017-03-20T03:34:09.509Z,0
2017-03-20T03:35:09.982Z,0
2017-03-20T03:36:10.448Z,0
2017-03-20T03:37:10.945Z,0
2017-03-20T03:38:11.431Z,0
2017-03-20T03:39:11.916Z,0
2017-03-20T03:40:12.434Z,0
2017-03-20T03:41:12.889Z,0
2017-03-20T03:42:13.359Z,0
2017-03-20T03:43:13.863Z,0
2017-03-20T03:44:14.323Z,0
2017-03-20T03:45:14.782Z,0
2017-03-20T03:46:15.254Z,0
2017-03-20T03:47:15.725Z,0
2017-03-20T03:48:16.236Z,0
2017-03-20T03:49:16.671Z,0
2017-03-20T03:50:17.198Z,0
2017-03-20T03:51:17.680Z,0
2017-03-20T03:52:18.173Z,0
2017-03-20T03:53:18.653Z,0
2017-03-20T03:54:19.097Z,0
2017-03-20T03:55:19.554Z,0
2017-03-20T03:56:20.057Z,0
2017-03-20T03:57:20.546Z,0
2017-03-20T03:58:21.017Z,0
2017-03-20T03:59:21.512Z,0
2017-03-20T04:00:21.993Z,0
2017-03-20T04:01:22.474Z,0
2017-03-20T04:02:22.968Z,0
2017-03-20T04:03:23.448Z,0
2017-03-20T04:04:23.922Z,0
2017-03-20T04:05:24.410Z,0
2017-03-20T04:06:24.873Z,0
2017-03-20T04:07:25.370Z,0
2017-03-20T04:08:25.873Z,0
2017-03-20T04:09:26.391Z,0
2017-03-20T04:10:26.862Z,0
2017-03-20T04:11:27.322Z,0
2017-03-20T04:12:27.776Z,0
2017-03-20T04:13:28.268Z,0
2017-03-20T04:14:28.746Z,0
2017-03-20T04:15:29.228Z,0
2017-03-20T04:16:29.752Z,0
2017-03-20T04:17:30.222Z,0
2017-03-20T04:18:30.696Z,0
2017-03-20T04:19:31.182Z,0
2017-03-20T04:20:31.679Z,0
2017-03-20T04:21:31.674Z,0
2017-03-20T04:22:32.163Z,0
2017-03-20T04:23:32.675Z,0
2017-03-20T04:24:33.165Z,0
2017-03-20T04:25:33.662Z,0
2017-03-20T04:26:34.129Z,0
2017-03-20T04:27:34.625Z,0
2017-03-20T04:28:35.098Z,0
2017-03-20T04:29:35.579Z,0
2017-03-20T04:30:36.065Z,0
2017-03-20T04:31:36.814Z,0
2017-03-20T04:32:37.283Z,0
2017-03-20T04:33:37.742Z,0
2017-03-20T04:34:38.245Z,0
2017-03-20T04:35:38.773Z,0
2017-03-20T04:36:39.207Z,0
2017-03-20T04:37:39.673Z,0
2017-03-20T04:38:40.154Z,0
2017-03-20T04:39:40.625Z,0
2017-03-20T04:40:41.097Z,0
2017-03-20T04:41:41.572Z,0
2017-03-20T04:42:42.044Z,0
2017-03-20T04:43:42.547Z,0
2017-03-20T04:44:42.998Z,0
2017-03-20T04:45:43.480Z,0
2017-03-20T04:46:43.940Z,0
2017-03-20T04:47:44.443Z,0
2017-03-20T04:48:44.911Z,4
2017-03-20T04:49:45.371Z,4
2017-03-20T04:50:45.842Z,0
2017-03-20T04:51:46.295Z,4
2017-03-20T04:52:46.773Z,0
2017-03-20T04:53:47.253Z,4
2017-03-20T04:54:47.722Z,8
2017-03-20T04:55:48.202Z,4
2017-03-20T04:56:48.663Z,8
2017-03-20T04:57:49.133Z,8
2017-03-20T04:58:49.625Z,8
2017-03-20T04:59:50.116Z,8
2017-03-20T05:00:50.514Z,8
2017-03-20T05:01:50.926Z,12
2017-03-20T05:02:51.326Z,20
2017-03-20T05:03:51.728Z,20
2017-03-20T05:04:52.143Z,28
2017-03-20T05:05:52.549Z,36
2017-03-20T05:06:52.943Z,48
2017-03-20T05:07:53.342Z,60
2017-03-20T05:08:53.748Z,60
2017-03-20T05:09:54.158Z,64
2017-03-20T05:10:54.562Z,76
2017-03-20T05:11:54.961Z,96
2017-03-20T05:12:55.390Z,92
2017-03-20T05:13:55.826Z,116
2017-03-20T05:14:56.234Z,132
2017-03-20T05:15:56.637Z,124
2017-03-20T05:16:57.028Z,112
2017-03-20T05:17:57.429Z,108
2017-03-20T05:18:57.859Z,132
2017-03-20T05:19:58.267Z,152
2017-03-20T05:20:58.726Z,160
2017-03-20T05:21:59.122Z,164
2017-03-20T05:22:59.523Z,176
2017-03-20T05:23:59.965Z,220
2017-03-20T05:25:00.414Z,192
2017-03-20T05:26:00.805Z,160
2017-03-20T05:27:01.215Z,196
2017-03-20T05:28:01.634Z,212
2017-03-20T05:29:02.069Z,224
2017-03-20T05:30:02.477Z,260
2017-03-20T05:31:02.858Z,224
2017-03-20T05:32:03.244Z,200
2017-03-20T05:33:03.646Z,200
2017-03-20T05:34:04.054Z,204
2017-03-20T05:35:04.472Z,220
2017-03-20T05:36:04.877Z,232
2017-03-20T05:37:05.275Z,192
2017-03-20T05:38:05.705Z,192
2017-03-20T05:39:06.162Z,188
2017-03-20T05:40:06.591Z,200
2017-03-20T05:41:07.001Z,284
2017-03-20T05:42:07.450Z,332
2017-03-20T05:43:07.865Z,332
2017-03-20T05:44:08.272Z,360
2017-03-20T05:45:08.693Z,408
2017-03-20T05:46:09.095Z,444
2017-03-20T05:47:09.490Z,440
2017-03-20T05:48:09.894Z,448
2017-03-20T05:49:10.306Z,360
2017-03-20T05:50:10.707Z,380
2017-03-20T05:51:11.116Z,416
2017-03-20T05:52:11.516Z,404
2017-03-20T05:53:11.917Z,408
2017-03-20T05:54:12.331Z,464
2017-03-20T05:55:12.760Z,424
2017-03-20T05:56:13.181Z,432
2017-03-20T05:57:13.591Z,436
2017-03-20T05:58:13.992Z,428
2017-03-20T05:59:14.408Z,532
2017-03-20T06:00:14.803Z,480
2017-03-20T06:01:15.186Z,492
2017-03-20T06:02:15.595Z,488
2017-03-20T06:03:16.002Z,428
2017-03-20T06:04:16.408Z,392
2017-03-20T06:05:16.859Z,392
2017-03-20T06:06:17.288Z,440
2017-03-20T06:07:17.705Z,412
2017-03-20T06:08:18.095Z,408
2017-03-20T06:09:18.501Z,376
2017-03-20T06:10:19.041Z,348
2017-03-20T06:11:19.445Z,380
2017-03-20T06:12:19.851Z,484
2017-03-20T06:13:20.241Z,388
2017-03-20T06:14:20.631Z,420
2017-03-20T06:15:21.233Z,508
2017-03-20T06:16:21.637Z,528
2017-03-20T06:17:22.049Z,560
2017-03-20T06:18:22.453Z,564
2017-03-20T06:19:22.845Z,588
2017-03-20T06:20:23.396Z,700
2017-03-20T06:21:23.802Z,744
2017-03-20T06:22:24.199Z,688
2017-03-20T06:23:24.598Z,692
2017-03-20T06:24:25.005Z,672
2017-03-20T06:25:25.399Z,796
2017-03-20T06:26:25.823Z,776
2017-03-20T06:27:26.260Z,860
2017-03-20T06:28:26.663Z,908
2017-03-20T06:29:27.095Z,880
2017-03-20T06:30:27.497Z,844
2017-03-20T06:31:27.894Z,872
2017-03-20T06:32:28.296Z,840
2017-03-20T06:33:28.698Z,808
2017-03-20T06:34:29.107Z,840
2017-03-20T06:35:29.534Z,952
2017-03-20T06:36:29.945Z,1032
2017-03-20T06:37:30.338Z,948
2017-03-20T06:38:30.748Z,1044
2017-03-20T06:39:31.149Z,924
2017-03-20T06:40:31.538Z,1084
2017-03-20T06:41:31.955Z,1072
2017-03-20T06:42:32.343Z,1208
2017-03-20T06:43:32.793Z,1036
2017-03-20T06:44:33.240Z,1184
2017-03-20T06:45:33.642Z,1132
2017-03-20T06:46:34.007Z,1136
2017-03-20T06:47:34.412Z,1124
2017-03-20T06:48:34.821Z,1128
2017-03-20T06:49:35.228Z,1184
2017-03-20T06:50:35.611Z,1300
2017-03-20T06:51:36.038Z,1320
2017-03-20T06:52:36.444Z,1424
2017-03-20T06:53:36.849Z,1488
2017-03-20T06:54:37.260Z,1500
2017-03-20T06:55:37.654Z,1452
2017-03-20T06:56:38.062Z,1284
2017-03-20T06:57:38.473Z,1420
2017-03-20T06:58:38.879Z,1404
2017-03-20T06:59:39.265Z,1320
2017-03-20T07:00:39.657Z,1320
2017-03-20T07:01:40.089Z,1292
2017-03-20T07:02:40.502Z,1256
2017-03-20T07:03:40.956Z,1068
2017-03-20T07:04:41.355Z,1220
2017-03-20T07:05:41.802Z,1220
2017-03-20T07:06:42.205Z,1212
2017-03-20T07:07:42.610Z,1256
2017-03-20T07:08:43.037Z,1204
2017-03-20T07:09:43.441Z,1244
2017-03-20T07:10:43.884Z,1304
2017-03-20T07:11:44.276Z,1344
2017-03-20T07:12:44.655Z,1460
2017-03-20T07:13:45.074Z,1452
2017-03-20T07:14:45.480Z,1780
2017-03-20T07:15:45.880Z,1524
2017-03-20T07:16:46.314Z,1260
2017-03-20T07:17:46.726Z,1260
2017-03-20T07:18:47.127Z,1352
2017-03-20T07:19:47.529Z,1324
2017-03-20T07:20:47.927Z,1400
2017-03-20T07:21:48.324Z,1436
2017-03-20T07:22:48.727Z,1372
2017-03-20T07:23:49.134Z,1476
2017-03-20T07:24:49.530Z,1588
2017-03-20T07:25:49.969Z,1452
2017-03-20T07:26:50.377Z,1284
2017-03-20T07:27:50.796Z,1476
2017-03-20T07:28:51.208Z,1476
2017-03-20T07:29:51.606Z,1512
2017-03-20T07:30:52.013Z,1464
2017-03-20T07:31:52.394Z,1584
2017-03-20T07:32:52.831Z,1388
2017-03-20T07:33:53.233Z,1424
2017-03-20T07:34:53.626Z,1268
2017-03-20T07:35:54.025Z,1252
2017-03-20T07:36:54.420Z,1484
2017-03-20T07:37:54.848Z,1468
2017-03-20T07:38:55.246Z,1604
2017-03-20T07:39:55.657Z,1480
2017-03-20T07:40:56.057Z,1512
2017-03-20T07:41:56.463Z,1476
2017-03-20T07:42:56.858Z,1540
2017-03-20T07:43:57.260Z,1612
2017-03-20T07:44:57.687Z,1604
2017-03-20T07:45:58.097Z,1524
2017-03-20T07:46:58.507Z,1520
2017-03-20T07:47:58.956Z,1604
2017-03-20T07:48:59.356Z,1568
2017-03-20T07:49:59.753Z,1460
2017-03-20T07:51:00.161Z,1816
2017-03-20T07:52:00.609Z,1812
2017-03-20T07:53:01.005Z,1848
2017-03-20T07:54:01.404Z,1736
2017-03-20T07:55:01.805Z,1868
2017-03-20T07:56:02.202Z,1872
2017-03-20T07:57:03.100Z,2044
2017-03-20T07:58:03.134Z,2008
2017-03-20T07:59:03.153Z,1712
2017-03-20T08:00:03.203Z,1768
2017-03-20T08:01:03.225Z,1476
2017-03-20T08:02:03.223Z,1232
2017-03-20T08:03:03.286Z,1532
2017-03-20T08:04:03.334Z,1284
2017-03-20T08:05:03.352Z,1508
2017-03-20T08:06:03.365Z,1716
2017-03-20T08:07:03.412Z,1892
2017-03-20T08:08:03.443Z,2116
2017-03-20T08:09:03.487Z,2316
2017-03-20T08:10:03.532Z,2692
2017-03-20T08:11:03.509Z,2488
2017-03-20T08:12:03.540Z,2156
2017-03-20T08:13:03.597Z,2388
2017-03-20T08:14:03.616Z,2464
2017-03-20T08:15:03.656Z,2376
2017-03-20T08:16:03.671Z,2508
2017-03-20T08:17:03.719Z,3344
2017-03-20T08:18:03.741Z,3676
2017-03-20T08:19:03.798Z,3652
2017-03-20T08:20:03.798Z,3584
2017-03-20T08:21:03.837Z,3736
2017-03-20T08:22:03.875Z,3792
2017-03-20T08:23:03.916Z,3696
2017-03-20T08:24:03.938Z,3460
2017-03-20T08:25:03.922Z,3576
2017-03-20T08:26:03.984Z,3968
2017-03-20T08:27:04.035Z,4600
2017-03-20T08:28:04.097Z,4796
2017-03-20T08:29:04.116Z,3848
2017-03-20T08:30:04.176Z,3464
2017-03-20T08:31:04.158Z,3696
2017-03-20T08:32:04.167Z,3924
2017-03-20T08:33:04.198Z,3912
2017-03-20T08:34:04.225Z,4364
2017-03-20T08:35:04.277Z,4360
2017-03-20T08:36:04.307Z,5064
2017-03-20T08:37:04.330Z,6668
2017-03-20T08:38:04.353Z,6856
2017-03-20T08:39:04.390Z,5824
2017-03-20T08:40:04.431Z,5028
2017-03-20T08:41:04.447Z,4832
2017-03-20T08:42:04.494Z,5148
2017-03-20T08:43:04.523Z,3856
2017-03-20T08:44:04.561Z,3552
2017-03-20T08:45:04.697Z,3372
2017-03-20T08:46:04.612Z,3072
2017-03-20T08:47:04.626Z,3432
2017-03-20T08:48:04.671Z,2988
2017-03-20T08:49:04.753Z,3096
2017-03-20T08:50:04.883Z,3448
2017-03-20T08:51:04.773Z,3340
2017-03-20T08:52:04.817Z,3352
2017-03-20T08:53:04.847Z,3452
2017-03-20T08:54:04.859Z,4544
2017-03-20T08:55:05.472Z,4416
2017-03-20T08:56:05.320Z,4524
2017-03-20T08:57:05.375Z,4964
2017-03-20T08:58:05.362Z,4332
2017-03-20T08:59:05.428Z,4160
2017-03-20T09:00:05.697Z,5304
2017-03-20T09:01:05.531Z,4420
2017-03-20T09:02:05.484Z,3892
2017-03-20T09:03:05.149Z,3720
2017-03-20T09:04:05.185Z,3376
2017-03-20T09:05:05.216Z,3312
2017-03-20T09:06:05.254Z,3548
2017-03-20T09:07:05.269Z,3252
2017-03-20T09:08:05.306Z,3244
2017-03-20T09:09:05.344Z,3412
2017-03-20T09:10:05.372Z,3660
2017-03-20T09:11:05.405Z,3520
2017-03-20T09:12:05.478Z,3712
2017-03-20T09:13:05.475Z,4280
2017-03-20T09:14:05.501Z,3868
2017-03-20T09:15:05.558Z,4268
2017-03-20T09:16:05.567Z,3072
2017-03-20T09:17:05.592Z,2832
2017-03-20T09:18:05.642Z,2888
2017-03-20T09:19:05.677Z,2908
2017-03-20T09:20:05.800Z,2668
2017-03-20T09:21:05.724Z,2560
2017-03-20T09:22:05.747Z,2668
2017-03-20T09:23:05.794Z,2936
2017-03-20T09:24:05.829Z,3412
2017-03-20T09:25:06.073Z,4196
2017-03-20T09:26:05.908Z,4080
2017-03-20T09:27:05.918Z,4300
2017-03-20T09:28:05.942Z,4088
2017-03-20T09:29:05.983Z,3292
2017-03-20T09:30:06.019Z,3256
2017-03-20T09:31:06.069Z,3520
2017-03-20T09:32:06.073Z,3776
2017-03-20T09:33:06.108Z,3156
2017-03-20T09:34:06.149Z,3168
2017-03-20T09:35:06.208Z,2824
2017-03-20T09:36:06.199Z,2856
2017-03-20T09:37:06.229Z,2748
2017-03-20T09:38:06.304Z,2644
2017-03-20T09:39:06.332Z,2732
2017-03-20T09:40:06.352Z,2552
2017-03-20T09:41:06.367Z,2548
2017-03-20T09:42:06.378Z,2020
2017-03-20T09:43:06.427Z,2052
2017-03-20T09:44:06.458Z,2348
2017-03-20T09:45:06.487Z,2280
2017-03-20T09:46:06.506Z,2416
2017-03-20T09:47:06.530Z,2688
2017-03-20T09:48:06.581Z,2980
2017-03-20T09:49:06.622Z,2840
2017-03-20T09:50:06.636Z,2756
2017-03-20T09:51:06.677Z,2484
2017-03-20T09:52:06.714Z,2644
2017-03-20T09:53:06.745Z,2604
2017-03-20T09:54:06.780Z,2076
2017-03-20T09:55:06.807Z,2040
2017-03-20T09:56:06.850Z,2324
2017-03-20T09:57:06.867Z,2836
2017-03-20T09:58:06.899Z,3048
2017-03-20T09:59:06.947Z,3444
2017-03-20T10:00:07.130Z,3592
2017-03-20T10:01:06.976Z,3592
2017-03-20T10:02:07.067Z,3940
2017-03-20T10:03:07.054Z,4180
2017-03-20T10:04:07.087Z,4208
2017-03-20T10:05:07.243Z,4388
2017-03-20T10:06:07.153Z,5100
2017-03-20T10:07:07.183Z,5728
2017-03-20T10:08:07.221Z,5516
2017-03-20T10:09:07.227Z,4968
2017-03-20T10:10:07.288Z,4380
2017-03-20T10:11:07.342Z,4372
2017-03-20T10:12:07.329Z,4504
2017-03-20T10:13:07.384Z,4688
2017-03-20T10:14:07.402Z,4988
2017-03-20T10:15:07.433Z,5816
2017-03-20T10:16:07.462Z,6012
2017-03-20T10:17:07.477Z,6296
2017-03-20T10:18:07.536Z,6476
2017-03-20T10:19:07.570Z,7376
2017-03-20T10:20:07.585Z,7508
2017-03-20T10:21:07.624Z,7640
2017-03-20T10:22:07.653Z,7432
2017-03-20T10:23:07.689Z,7668
2017-03-20T10:24:07.719Z,8248
2017-03-20T10:25:07.754Z,7352
2017-03-20T10:26:07.788Z,6648
2017-03-20T10:27:07.810Z,5924
2017-03-20T10:28:07.845Z,4876
2017-03-20T10:29:07.894Z,4784
2017-03-20T10:30:07.925Z,5244
2017-03-20T10:31:07.954Z,4644
2017-03-20T10:32:07.994Z,3816
2017-03-20T10:33:08.014Z,3856
2017-03-20T10:34:08.049Z,4224
2017-03-20T10:35:08.070Z,4076
2017-03-20T10:36:08.124Z,4144
2017-03-20T10:37:08.140Z,3680
2017-03-20T10:38:08.193Z,3840
2017-03-20T10:39:08.230Z,4276
2017-03-20T10:40:08.247Z,4304
2017-03-20T10:41:08.571Z,4892
2017-03-20T10:42:08.317Z,4692
2017-03-20T10:43:08.353Z,5692
2017-03-20T10:44:08.428Z,5996
2017-03-20T10:45:08.421Z,6384
2017-03-20T10:46:08.435Z,6208
2017-03-20T10:47:08.475Z,6460
2017-03-20T10:48:08.510Z,6668
2017-03-20T10:49:08.527Z,6260
2017-03-20T10:50:08.620Z,5960
2017-03-20T10:51:08.703Z,5668
2017-03-20T10:52:08.622Z,4868
2017-03-20T10:53:08.674Z,5132
2017-03-20T10:54:08.688Z,4760
2017-03-20T10:55:08.757Z,4524
2017-03-20T10:56:08.874Z,3988
2017-03-20T10:57:08.777Z,4416
2017-03-20T10:58:08.829Z,4408
2017-03-20T10:59:08.891Z,4656
2017-03-20T11:00:09.124Z,5428
2017-03-20T11:01:08.927Z,5188
2017-03-20T11:02:08.949Z,5780
2017-03-20T11:03:08.981Z,6128
2017-03-20T11:04:09.029Z,7184
2017-03-20T11:05:09.115Z,7608
2017-03-20T11:06:09.091Z,6072
2017-03-20T11:07:09.124Z,5752
2017-03-20T11:08:09.161Z,5392
2017-03-20T11:09:09.193Z,5076
2017-03-20T11:10:09.205Z,4092
2017-03-20T11:11:09.254Z,3776
2017-03-20T11:12:09.273Z,3608
2017-03-20T11:13:09.330Z,3572
2017-03-20T11:14:09.363Z,3704
2017-03-20T11:15:09.371Z,3772
2017-03-20T11:16:09.432Z,3736
2017-03-20T11:17:09.442Z,4044
2017-03-20T11:18:09.484Z,4772
2017-03-20T11:19:09.524Z,4620
2017-03-20T11:20:09.532Z,4416
2017-03-20T11:21:09.579Z,4540
2017-03-20T11:22:09.620Z,4648
2017-03-20T11:23:09.635Z,4536
2017-03-20T11:24:09.681Z,4352
2017-03-20T11:25:09.725Z,4368
2017-03-20T11:26:09.760Z,4236
2017-03-20T11:27:09.780Z,5352
2017-03-20T11:28:09.818Z,4724
2017-03-20T11:29:09.848Z,4208
2017-03-20T11:30:09.899Z,4212
2017-03-20T11:31:09.932Z,4456
2017-03-20T11:32:09.959Z,4552
2017-03-20T11:33:09.974Z,4380
2017-03-20T11:34:10.051Z,4836
2017-03-20T11:35:10.193Z,5284
2017-03-20T11:36:10.079Z,5176
2017-03-20T11:37:10.073Z,4664
2017-03-20T11:38:10.210Z,4744
2017-03-20T11:39:10.165Z,5296
2017-03-20T11:40:10.468Z,5156
2017-03-20T11:41:10.239Z,5040
2017-03-20T11:42:10.277Z,4428
2017-03-20T11:43:10.310Z,3644
2017-03-20T11:44:10.332Z,3284
2017-03-20T11:45:10.455Z,3352
2017-03-20T11:46:10.384Z,2944
2017-03-20T11:47:10.445Z,3680
2017-03-20T11:48:10.448Z,4176
2017-03-20T11:49:10.490Z,4044
2017-03-20T11:50:10.536Z,2948
2017-03-20T11:51:10.560Z,2376
2017-03-20T11:52:10.585Z,2708
2017-03-20T11:53:10.661Z,3352
2017-03-20T11:54:10.688Z,3480
2017-03-20T11:55:10.700Z,4600
2017-03-20T11:56:10.727Z,5740
2017-03-20T11:57:10.758Z,4908
2017-03-20T11:58:10.792Z,4748
2017-03-20T11:59:10.830Z,4736
2017-03-20T12:00:11.083Z,4140
2017-03-20T12:01:10.900Z,4192
2017-03-20T12:02:10.929Z,3340
2017-03-20T12:03:10.955Z,3064
2017-03-20T12:04:10.993Z,2876
2017-03-20T12:05:11.035Z,3064
2017-03-20T12:06:11.283Z,3028
2017-03-20T12:07:11.139Z,3536
2017-03-20T12:08:11.265Z,3856
2017-03-20T12:09:11.153Z,3376
2017-03-20T12:10:11.196Z,3360
2017-03-20T12:11:11.223Z,3992
2017-03-20T12:12:11.250Z,4788
2017-03-20T12:13:11.287Z,4892
2017-03-20T12:14:11.327Z,4764
2017-03-20T12:15:11.365Z,4820
2017-03-20T12:16:11.392Z,6408
2017-03-20T12:17:11.433Z,5512
2017-03-20T12:18:11.465Z,3628
2017-03-20T12:19:11.487Z,3744
2017-03-20T12:20:11.522Z,4532
2017-03-20T12:21:11.552Z,4516
2017-03-20T12:22:11.578Z,4844
2017-03-20T12:23:11.625Z,4868
2017-03-20T12:24:11.664Z,5024
2017-03-20T12:25:11.901Z,5260
2017-03-20T12:26:11.715Z,5008
2017-03-20T12:27:11.746Z,4992
2017-03-20T12:28:11.800Z,4880
2017-03-20T12:29:11.839Z,4784
2017-03-20T12:30:11.871Z,4252
2017-03-20T12:31:11.903Z,3684
2017-03-20T12:32:11.912Z,2932
2017-03-20T12:33:11.955Z,2452
2017-03-20T12:34:11.979Z,2368
2017-03-20T12:35:12.008Z,4336
2017-03-20T12:36:12.058Z,3912
2017-03-20T12:37:12.076Z,2824
2017-03-20T12:38:12.112Z,2980
2017-03-20T12:39:12.185Z,2308
2017-03-20T12:40:12.218Z,1936
2017-03-20T12:41:12.212Z,2060
2017-03-20T12:42:12.258Z,2036
2017-03-20T12:43:12.276Z,2784
2017-03-20T12:44:12.308Z,2652
2017-03-20T12:45:12.333Z,2544
2017-03-20T12:46:12.381Z,3140
2017-03-20T12:47:12.456Z,3164
2017-03-20T12:48:12.436Z,3560
2017-03-20T12:49:12.464Z,2728
2017-03-20T12:50:12.524Z,3312
2017-03-20T12:51:12.584Z,3092
2017-03-20T12:52:12.589Z,2500
2017-03-20T12:53:12.617Z,2192
2017-03-20T12:54:12.688Z,2368
2017-03-20T12:55:12.724Z,3728
2017-03-20T12:56:12.730Z,4900
2017-03-20T12:57:12.745Z,4748
2017-03-20T12:58:12.772Z,4028
2017-03-20T12:59:12.820Z,4352
2017-03-20T13:00:12.834Z,4340
2017-03-20T13:01:12.879Z,3700
2017-03-20T13:02:12.906Z,4556
2017-03-20T13:03:12.940Z,5648
2017-03-20T13:04:12.974Z,4924
2017-03-20T13:05:13.006Z,3280
2017-03-20T13:06:13.023Z,3220
2017-03-20T13:07:13.089Z,3852
2017-03-20T13:08:13.105Z,4244
2017-03-20T13:09:13.135Z,3292
2017-03-20T13:10:13.197Z,2900
2017-03-20T13:11:13.188Z,2592
2017-03-20T13:12:13.229Z,2576
2017-03-20T13:13:13.279Z,2332
2017-03-20T13:14:13.296Z,1872
2017-03-20T13:15:13.348Z,2580
2017-03-20T13:16:13.394Z,3724
2017-03-20T13:17:13.414Z,4440
2017-03-20T13:18:13.425Z,4992
2017-03-20T13:19:13.481Z,5956
2017-03-20T13:20:13.493Z,6088
2017-03-20T13:21:13.568Z,5460
2017-03-20T13:22:13.567Z,5828
2017-03-20T13:23:13.604Z,6820
2017-03-20T13:24:13.636Z,6608
2017-03-20T13:25:13.676Z,5892
2017-03-20T13:26:13.727Z,5512
2017-03-20T13:27:13.734Z,6032
2017-03-20T13:28:13.780Z,5748
2017-03-20T13:29:13.800Z,4572
2017-03-20T13:30:13.828Z,3864
2017-03-20T13:31:13.870Z,5220
2017-03-20T13:32:13.931Z,5176
2017-03-20T13:33:13.937Z,5004
2017-03-20T13:34:13.966Z,4952
2017-03-20T13:35:14.000Z,4900
2017-03-20T13:36:14.078Z,4868
2017-03-20T13:37:14.062Z,4972
2017-03-20T13:38:14.098Z,5184
2017-03-20T13:39:14.132Z,5552
2017-03-20T13:40:14.170Z,4588
2017-03-20T13:41:14.173Z,4196
2017-03-20T13:42:14.235Z,4356
2017-03-20T13:43:14.272Z,4828
2017-03-20T13:44:14.306Z,5220
2017-03-20T13:45:14.340Z,4896
2017-03-20T13:46:14.361Z,4644
2017-03-20T13:47:14.388Z,5316
2017-03-20T13:48:14.441Z,5484
2017-03-20T13:49:14.453Z,5644
2017-03-20T13:50:14.473Z,5272
2017-03-20T13:51:14.531Z,5080
2017-03-20T13:52:14.572Z,5872
2017-03-20T13:53:14.601Z,5732
2017-03-20T13:54:14.635Z,4736
2017-03-20T13:55:14.767Z,4636